Time;durP1;ratioP1;P1;durP2;ratioP2;P2;SDS_P1;SDS_P2;PMS_P1;PMS_P2;Temp;Humidity;BMP_temperature;BMP_pressure;BME280_temperature;BME280_humidity;BME280_pressure;Samples;Min_cycle;Max_cycle;Signal;HPM_P1;HPM_P2
2023/07/23 00:00:30;;;;;;;20.47;16.30;;;13.80;94.90;;;;;;5072985;28;20175;-89
2023/07/23 00:02:55;;;;;;;21.60;18.20;;;13.80;94.90;;;;;;5072797;28;20654;-90
2023/07/23 00:05:25;;;;;;;25.23;19.53;;;13.80;94.90;;;;;;5072837;28;20232;-89
2023/07/23 00:07:54;;;;;;;22.17;19.80;;;13.80;95.00;;;;;;5073045;28;20573;-89
2023/07/23 00:10:19;;;;;;;24.30;20.77;;;13.80;95.00;;;;;;5074324;28;20171;-89
2023/07/23 00:12:45;;;;;;;26.30;20.03;;;13.90;95.00;;;;;;5072725;28;20182;-89
2023/07/23 00:15:12;;;;;;;27.30;21.10;;;13.80;95.00;;;;;;5072545;28;20227;-90
2023/07/23 00:17:39;;;;;;;27.17;20.97;;;13.80;95.10;;;;;;5073871;28;20171;-89
2023/07/23 00:20:06;;;;;;;29.17;22.50;;;13.90;95.10;;;;;;5072598;28;20175;-89
2023/07/23 00:22:32;;;;;;;25.67;21.83;;;13.90;95.10;;;;;;5072600;28;20202;-89
2023/07/23 00:24:58;;;;;;;27.80;23.13;;;13.90;95.20;;;;;;5073750;28;20197;-89
2023/07/23 00:27:23;;;;;;;25.07;21.90;;;13.90;95.20;;;;;;5073821;28;20171;-89
2023/07/23 00:29:49;;;;;;;30.07;24.20;;;13.90;95.20;;;;;;5073603;28;20195;-90
2023/07/23 00:32:14;;;;;;;29.17;25.30;;;13.90;95.20;;;;;;5073862;28;20213;-89
2023/07/23 00:34:40;;;;;;;28.10;25.10;;;13.90;95.30;;;;;;5073154;28;20191;-89
2023/07/23 00:37:06;;;;;;;29.20;25.03;;;13.90;95.30;;;;;;5073094;28;20176;-88
2023/07/23 00:39:31;;;;;;;31.40;25.27;;;14.00;95.30;;;;;;5074075;28;20549;-88
2023/07/23 00:41:57;;;;;;;28.43;24.87;;;14.00;95.40;;;;;;5072828;28;20179;-88
2023/07/23 00:44:22;;;;;;;32.67;26.63;;;14.00;95.40;;;;;;5072274;28;20199;-89
2023/07/23 00:46:48;;;;;;;30.57;26.70;;;14.00;95.40;;;;;;5072214;28;20183;-88
2023/07/23 00:49:13;;;;;;;32.30;25.87;;;14.00;95.40;;;;;;5073252;28;20195;-88
2023/07/23 00:51:40;;;;;;;36.10;27.87;;;14.00;95.50;;;;;;5073585;28;20168;-89
2023/07/23 00:54:06;;;;;;;31.80;26.30;;;14.10;95.50;;;;;;5073076;28;20232;-89
2023/07/23 00:56:34;;;;;;;31.53;28.13;;;14.00;95.50;;;;;;5072226;28;20185;-88
2023/07/23 00:59:00;;;;;;;37.37;28.50;;;14.00;95.60;;;;;;5073811;28;20211;-88
2023/07/23 01:01:26;;;;;;;36.80;26.97;;;14.10;95.60;;;;;;5073026;28;20589;-88
2023/07/23 01:03:51;;;;;;;33.90;27.47;;;14.10;95.60;;;;;;5073552;28;20206;-88
2023/07/23 01:06:18;;;;;;;36.60;29.03;;;14.10;95.60;;;;;;5072244;28;20207;-88
2023/07/23 01:08:45;;;;;;;35.60;28.93;;;14.10;95.60;;;;;;5073137;28;20202;-88
2023/07/23 01:11:11;;;;;;;38.07;29.00;;;14.00;95.70;;;;;;5076447;28;20175;-88
2023/07/23 01:13:38;;;;;;;33.73;29.93;;;14.10;95.70;;;;;;5078526;28;20191;-88
2023/07/23 01:16:07;;;;;;;32.97;28.57;;;14.00;95.70;;;;;;5076878;28;20557;-88
2023/07/23 01:18:37;;;;;;;38.47;29.13;;;14.10;95.70;;;;;;5077192;28;20542;-88
2023/07/23 01:21:03;;;;;;;33.70;29.13;;;14.10;95.70;;;;;;5077400;28;20293;-88
2023/07/23 01:23:29;;;;;;;36.33;30.50;;;14.00;95.70;;;;;;5078302;28;20608;-88
2023/07/23 01:25:54;;;;;;;35.33;29.87;;;14.10;95.70;;;;;;5077211;28;20209;-88
2023/07/23 01:28:20;;;;;;;36.27;29.90;;;14.10;95.70;;;;;;5077164;28;20238;-88
2023/07/23 01:30:45;;;;;;;35.97;30.03;;;14.00;95.70;;;;;;5077038;28;20179;-88
2023/07/23 01:33:12;;;;;;;38.33;29.83;;;14.10;95.70;;;;;;5078006;28;20171;-88
2023/07/23 01:35:38;;;;;;;32.90;27.90;;;14.10;95.70;;;;;;5077689;28;20178;-88
2023/07/23 01:38:03;;;;;;;35.73;28.27;;;14.10;95.70;;;;;;5078353;28;20175;-88
2023/07/23 01:40:29;;;;;;;29.97;25.80;;;14.10;95.70;;;;;;5078836;28;20184;-88
2023/07/23 01:42:55;;;;;;;32.47;27.03;;;14.20;95.70;;;;;;5078386;28;20220;-88
2023/07/23 01:45:21;;;;;;;32.00;26.53;;;14.10;95.70;;;;;;5076698;28;20686;-88
2023/07/23 01:47:46;;;;;;;32.30;25.67;;;14.20;95.70;;;;;;5076573;28;20176;-88
2023/07/23 01:50:12;;;;;;;33.43;27.10;;;14.20;95.70;;;;;;5076905;28;20343;-88
2023/07/23 01:52:37;;;;;;;32.20;27.43;;;14.20;95.70;;;;;;5077089;28;20769;-87
2023/07/23 01:55:03;;;;;;;30.47;26.57;;;14.20;95.70;;;;;;5076558;28;20682;-88
2023/07/23 01:57:29;;;;;;;29.67;25.23;;;14.20;95.70;;;;;;5076499;28;20563;-88
2023/07/23 01:59:54;;;;;;;32.27;26.33;;;14.20;95.60;;;;;;5077330;28;20175;-88
2023/07/23 02:02:20;;;;;;;30.00;25.00;;;14.20;95.60;;;;;;5076235;28;20647;-88
2023/07/23 02:04:45;;;;;;;32.13;25.40;;;14.20;95.60;;;;;;5076360;28;20205;-89
2023/07/23 02:07:11;;;;;;;29.03;24.70;;;14.20;95.50;;;;;;5076507;28;20591;-88
2023/07/23 02:09:37;;;;;;;32.90;26.40;;;14.20;95.50;;;;;;5076647;28;20586;-88
2023/07/23 02:12:03;;;;;;;36.97;26.83;;;14.20;95.50;;;;;;5076523;28;20266;-88
2023/07/23 02:14:29;;;;;;;35.77;26.97;;;14.20;95.50;;;;;;5076627;28;20619;-88
2023/07/23 02:16:54;;;;;;;30.00;26.67;;;14.20;95.50;;;;;;5077109;28;20179;-88
2023/07/23 02:19:20;;;;;;;32.40;26.03;;;14.20;95.50;;;;;;5076179;28;20185;-88
2023/07/23 02:21:46;;;;;;;31.30;26.33;;;14.30;95.50;;;;;;5076114;28;20190;-89
2023/07/23 02:24:11;;;;;;;30.53;25.67;;;14.30;95.40;;;;;;5076051;28;20195;-88
2023/07/23 02:26:37;;;;;;;37.23;27.23;;;14.30;95.40;;;;;;5077102;28;20214;-88
2023/07/23 02:29:02;;;;;;;35.33;26.97;;;14.30;95.40;;;;;;5075507;28;20199;-88
2023/07/23 02:31:28;;;;;;;35.23;26.90;;;14.30;95.40;;;;;;5075683;28;20206;-88
2023/07/23 02:33:53;;;;;;;35.10;26.70;;;14.30;95.40;;;;;;5076392;28;20187;-88
2023/07/23 02:36:19;;;;;;;37.90;34.00;;;14.30;95.40;;;;;;5077247;28;20221;-88
2023/07/23 02:38:44;;;;;;;37.80;34.10;;;14.30;95.40;;;;;;5075646;28;20176;-88
2023/07/23 02:41:10;;;;;;;39.33;35.10;;;14.30;95.30;;;;;;5075973;28;20167;-88
2023/07/23 02:43:35;;;;;;;34.83;31.27;;;14.40;95.40;;;;;;5076328;28;20574;-88
2023/07/23 02:46:01;;;;;;;36.87;32.13;;;14.30;95.30;;;;;;5075843;28;20175;-87
2023/07/23 02:48:26;;;;;;;36.43;31.67;;;14.30;95.30;;;;;;5077400;28;20191;-88
2023/07/23 02:50:52;;;;;;;36.50;32.70;;;14.30;95.30;;;;;;5076166;28;20197;-88
2023/07/23 02:53:18;;;;;;;36.07;32.37;;;14.30;95.30;;;;;;5076820;28;20176;-88
2023/07/23 02:55:45;;;;;;;36.17;32.47;;;14.30;95.30;;;;;;5076346;28;20171;-88
2023/07/23 02:58:10;;;;;;;38.50;32.63;;;14.30;95.30;;;;;;5077385;28;20246;-88
2023/07/23 03:00:39;;;;;;;30.07;26.07;;;14.30;95.30;;;;;;5076442;28;20205;-88
2023/07/23 03:03:06;;;;;;;33.77;25.70;;;14.30;95.30;;;;;;5075809;28;20179;-87
2023/07/23 03:05:33;;;;;;;36.47;26.10;;;14.30;95.30;;;;;;5075867;28;20198;-88
2023/07/23 03:07:58;;;;;;;33.87;26.63;;;14.30;95.30;;;;;;5076332;28;20179;-88
2023/07/23 03:10:24;;;;;;;33.00;25.53;;;14.30;95.40;;;;;;5077603;28;20176;-88
2023/07/23 03:12:49;;;;;;;29.70;25.37;;;14.30;95.40;;;;;;5076266;28;20228;-88
2023/07/23 03:15:15;;;;;;;31.47;26.27;;;14.30;95.40;;;;;;5076815;28;20195;-88
2023/07/23 03:17:40;;;;;;;32.73;26.23;;;14.30;95.40;;;;;;5076926;28;20182;-88
2023/07/23 03:20:08;;;;;;;34.80;26.47;;;14.30;95.40;;;;;;5075561;28;20293;-88
2023/07/23 03:22:33;;;;;;;30.27;25.03;;;14.30;95.40;;;;;;5077092;28;20187;-88
2023/07/23 03:24:58;;;;;;;30.93;25.40;;;14.40;95.40;;;;;;5075068;28;20195;-88
2023/07/23 03:27:24;;;;;;;33.03;25.80;;;14.40;95.40;;;;;;5074982;28;20182;-88
2023/07/23 03:29:49;;;;;;;31.17;25.83;;;14.30;95.40;;;;;;5074709;28;20225;-88
2023/07/23 03:32:15;;;;;;;33.90;26.33;;;14.30;95.40;;;;;;5075267;28;20179;-88
2023/07/23 03:34:40;;;;;;;36.53;27.00;;;14.30;95.40;;;;;;5074972;28;20265;-88
2023/07/23 03:37:06;;;;;;;33.72;26.40;;;14.30;95.40;;;;;;5074432;28;20649;-87
2023/07/23 03:39:31;;;;;;;33.47;25.63;;;14.30;95.50;;;;;;5075221;28;20270;-88
2023/07/23 03:41:57;;;;;;;31.83;26.33;;;14.30;95.50;;;;;;5075423;28;20220;-88
2023/07/23 03:44:22;;;;;;;35.77;26.77;;;14.30;95.50;;;;;;5074885;28;20598;-88
2023/07/23 03:47:24;;;;;;;40.80;27.67;;;14.30;95.50;;;;;;5075810;28;20174;-88
2023/07/23 03:49:49;;;;;;;31.33;24.80;;;14.30;95.60;;;;;;4978843;28;20346;-88
2023/07/23 03:52:15;;;;;;;29.60;25.77;;;14.40;95.60;;;;;;5054803;28;20180;-89
2023/07/23 03:54:40;;;;;;;34.23;25.97;;;14.30;95.60;;;;;;5075129;28;20559;-88
2023/07/23 03:57:06;;;;;;;35.33;27.10;;;14.30;95.60;;;;;;5074404;28;20206;-88
2023/07/23 03:59:39;;;;;;;34.50;26.33;;;14.30;95.60;;;;;;5074916;28;20185;-89
2023/07/23 04:02:05;;;;;;;30.48;25.48;;;14.30;95.60;;;;;;5074588;28;20256;-88
2023/07/23 04:04:31;;;;;;;31.00;25.37;;;14.30;95.70;;;;;;5074368;28;20196;-88
2023/07/23 04:06:57;;;;;;;28.90;24.00;;;14.30;95.70;;;;;;5074028;28;20176;-88
2023/07/23 04:09:22;;;;;;;36.20;24.20;;;14.30;95.70;;;;;;5073124;28;20201;-88
2023/07/23 04:11:48;;;;;;;31.80;23.93;;;14.30;95.70;;;;;;5073462;28;20220;-88
2023/07/23 04:14:13;;;;;;;28.75;22.45;;;14.30;95.70;;;;;;5074795;28;20241;-88
2023/07/23 04:16:39;;;;;;;28.47;22.37;;;14.40;95.70;;;;;;5074022;28;20176;-87
2023/07/23 04:19:04;;;;;;;29.77;21.60;;;14.30;95.70;;;;;;5075369;28;20179;-88
2023/07/23 04:21:30;;;;;;;24.13;21.53;;;14.30;95.70;;;;;;5074432;28;20195;-88
2023/07/23 04:23:57;;;;;;;28.63;22.70;;;14.30;95.70;;;;;;5074479;28;20199;-88
2023/07/23 04:26:23;;;;;;;28.23;21.23;;;14.30;95.70;;;;;;5075008;28;20650;-88
2023/07/23 04:28:49;;;;;;;29.43;22.43;;;14.40;95.70;;;;;;5074621;28;20221;-89
2023/07/23 04:31:15;;;;;;;29.02;22.13;;;14.30;95.70;;;;;;5074016;28;20175;-88
2023/07/23 04:33:41;;;;;;;24.80;21.40;;;14.30;95.80;;;;;;5074541;28;20195;-88
2023/07/23 04:36:07;;;;;;;28.00;22.60;;;14.40;95.80;;;;;;5074424;28;20646;-89
2023/07/23 04:38:34;;;;;;;29.03;22.30;;;14.40;95.80;;;;;;5074202;28;20183;-88
2023/07/23 04:40:59;;;;;;;28.80;22.10;;;14.30;95.80;;;;;;5074474;28;20550;-88
2023/07/23 04:43:25;;;;;;;23.53;20.67;;;14.40;95.90;;;;;;5076123;28;20199;-88
2023/07/23 04:45:51;;;;;;;28.67;21.07;;;14.30;95.80;;;;;;5074771;28;20244;-88
2023/07/23 04:48:16;;;;;;;24.43;20.37;;;14.40;95.90;;;;;;5074332;28;20634;-89
2023/07/23 04:50:42;;;;;;;25.60;20.47;;;14.40;95.90;;;;;;5074344;28;20178;-88
2023/07/23 04:53:08;;;;;;;23.63;19.40;;;14.40;95.90;;;;;;5074385;28;20203;-88
2023/07/23 04:55:34;;;;;;;26.63;19.97;;;14.40;95.90;;;;;;5074436;28;20221;-88
2023/07/23 04:58:00;;;;;;;27.43;20.40;;;14.40;95.90;;;;;;5074487;28;20698;-88
2023/07/23 05:00:26;;;;;;;24.50;19.37;;;14.50;95.80;;;;;;5074904;28;20626;-88
2023/07/23 05:02:52;;;;;;;23.90;19.60;;;14.40;95.90;;;;;;5074737;28;20225;-88
2023/07/23 05:05:18;;;;;;;28.50;19.80;;;14.50;95.90;;;;;;5075344;28;20195;-88
2023/07/23 05:07:43;;;;;;;21.37;18.63;;;14.50;95.80;;;;;;5075002;28;20635;-88
2023/07/23 05:10:09;;;;;;;18.07;16.13;;;14.50;95.80;;;;;;5075487;28;20207;-88
2023/07/23 05:12:35;;;;;;;18.03;16.13;;;14.50;95.80;;;;;;5074431;28;20172;-88
2023/07/23 05:15:12;;;;;;;20.57;17.03;;;14.50;95.70;;;;;;5075156;28;20194;-88
2023/07/23 05:17:38;;;;;;;19.33;16.27;;;14.50;95.60;;;;;;5074348;28;20194;-88
2023/07/23 05:20:06;;;;;;;22.03;18.27;;;14.50;95.60;;;;;;5074169;28;20180;-88
2023/07/23 05:22:32;;;;;;;19.60;15.03;;;14.50;95.60;;;;;;5073004;28;20199;-88
2023/07/23 05:24:58;;;;;;;16.53;14.83;;;14.60;95.60;;;;;;5073886;28;20200;-88
2023/07/23 05:27:23;;;;;;;18.90;15.37;;;14.60;95.70;;;;;;5073822;28;20181;-88
2023/07/23 05:29:49;;;;;;;17.17;15.13;;;14.60;95.60;;;;;;5074425;28;20203;-88
2023/07/23 05:32:14;;;;;;;19.53;15.17;;;14.60;95.60;;;;;;5074777;28;20175;-88
2023/07/23 05:34:40;;;;;;;16.02;14.43;;;14.70;95.70;;;;;;5074741;28;20195;-90
2023/07/23 05:37:05;;;;;;;18.70;15.07;;;14.70;95.60;;;;;;5076328;28;20179;-89
2023/07/23 05:39:31;;;;;;;20.20;15.73;;;14.60;95.50;;;;;;5075593;28;20191;-90
2023/07/23 05:41:56;;;;;;;20.20;15.75;;;14.60;95.50;;;;;;5075852;28;20180;-88
2023/07/23 05:44:22;;;;;;;18.20;16.30;;;14.70;95.50;;;;;;5076324;28;20200;-88
2023/07/23 05:46:47;;;;;;;16.93;15.23;;;14.70;95.50;;;;;;5072436;28;20179;-87
2023/07/23 05:49:13;;;;;;;17.13;14.13;;;14.70;95.40;;;;;;5075568;28;20567;-87
2023/07/23 05:51:38;;;;;;;18.03;16.17;;;14.70;95.50;;;;;;5074931;28;20180;-88
2023/07/23 05:54:04;;;;;;;19.53;17.27;;;14.70;95.60;;;;;;5073133;28;20199;-89
2023/07/23 05:56:31;;;;;;;19.90;16.95;;;14.70;95.60;;;;;;5076026;28;20270;-88
2023/07/23 05:58:57;;;;;;;17.45;15.68;;;14.80;95.60;;;;;;5078722;28;20167;-88
2023/07/23 06:01:22;;;;;;;17.77;16.00;;;14.70;95.60;;;;;;5076661;28;20228;-88
2023/07/23 06:03:48;;;;;;;17.80;15.90;;;14.80;95.70;;;;;;5078319;28;20207;-87
2023/07/23 06:06:13;;;;;;;19.77;16.60;;;14.80;95.70;;;;;;5077773;28;20282;-88
2023/07/23 06:08:39;;;;;;;19.83;16.38;;;14.80;95.70;;;;;;5076978;28;20203;-88
2023/07/23 06:11:04;;;;;;;20.25;16.67;;;14.80;95.70;;;;;;5076281;28;20179;-88
2023/07/23 06:13:30;;;;;;;19.87;17.40;;;14.80;95.70;;;;;;5076711;28;20260;-88
2023/07/23 06:15:55;;;;;;;21.50;17.25;;;14.80;95.70;;;;;;5076255;28;20175;-88
2023/07/23 06:18:22;;;;;;;18.57;16.67;;;14.80;95.70;;;;;;5077252;28;20203;-88
2023/07/23 06:20:47;;;;;;;21.05;17.23;;;14.70;95.70;;;;;;5076272;28;20221;-88
2023/07/23 06:23:13;;;;;;;21.17;17.25;;;14.80;95.70;;;;;;5078037;28;20172;-87
2023/07/23 06:25:39;;;;;;;21.70;17.17;;;14.80;95.70;;;;;;5077480;28;20186;-88
2023/07/23 06:28:05;;;;;;;22.20;16.47;;;14.80;95.70;;;;;;5076019;28;20245;-89
2023/07/23 06:30:31;;;;;;;18.95;16.95;;;14.80;95.70;;;;;;5076686;28;20623;-89
2023/07/23 06:32:57;;;;;;;22.85;17.52;;;14.80;95.70;;;;;;5076125;28;20194;-89
2023/07/23 06:35:22;;;;;;;25.90;17.67;;;14.80;95.70;;;;;;5075703;28;20582;-88
2023/07/23 06:37:48;;;;;;;19.92;17.85;;;14.80;95.60;;;;;;5076487;28;20172;-88
2023/07/23 06:40:13;;;;;;;21.65;18.33;;;14.80;95.70;;;;;;5076453;28;20627;-88
2023/07/23 06:42:39;;;;;;;21.42;18.20;;;14.80;95.70;;;;;;5076744;28;20186;-88
2023/07/23 06:45:05;;;;;;;21.17;18.13;;;14.80;95.70;;;;;;5076209;28;20205;-89
2023/07/23 06:47:30;;;;;;;21.80;18.95;;;14.90;95.70;;;;;;5076411;28;20270;-88
2023/07/23 06:49:56;;;;;;;21.70;19.63;;;14.80;95.60;;;;;;5076145;28;20202;-88
2023/07/23 06:52:21;;;;;;;23.60;19.75;;;14.80;95.60;;;;;;5076587;28;20289;-88
2023/07/23 06:54:47;;;;;;;20.98;18.88;;;14.80;95.60;;;;;;5076439;28;20196;-89
2023/07/23 06:57:12;;;;;;;22.50;18.95;;;14.80;95.60;;;;;;5076396;28;20182;-88
2023/07/23 06:59:38;;;;;;;21.02;18.83;;;14.80;95.60;;;;;;5076155;28;20183;-88
2023/07/23 07:02:04;;;;;;;22.10;19.02;;;14.90;95.60;;;;;;5076575;28;20184;-88
2023/07/23 07:04:29;;;;;;;19.98;18.02;;;14.80;95.50;;;;;;5076533;28;20297;-88
2023/07/23 07:06:55;;;;;;;22.48;18.48;;;14.90;95.60;;;;;;5077563;28;20183;-88
2023/07/23 07:09:20;;;;;;;22.40;18.00;;;14.90;95.60;;;;;;5074795;28;20199;-88
2023/07/23 07:11:46;;;;;;;20.40;17.95;;;14.90;95.60;;;;;;5075454;28;20229;-88
2023/07/23 07:14:11;;;;;;;22.83;18.77;;;15.00;95.60;;;;;;5075947;28;20852;-88
2023/07/23 07:16:37;;;;;;;20.38;18.25;;;15.00;95.60;;;;;;5077449;28;20613;-88
2023/07/23 07:19:03;;;;;;;21.58;19.33;;;15.10;95.60;;;;;;5076228;28;20270;-88
2023/07/23 07:21:28;;;;;;;20.70;18.60;;;15.10;95.50;;;;;;5076584;28;20186;-88
2023/07/23 07:23:54;;;;;;;23.95;19.73;;;15.10;95.60;;;;;;5077493;28;20199;-89
2023/07/23 07:26:19;;;;;;;21.50;18.88;;;15.10;95.50;;;;;;5074816;28;20179;-88
2023/07/23 07:28:45;;;;;;;23.40;19.23;;;15.10;95.50;;;;;;5075636;28;20199;-88
2023/07/23 07:31:12;;;;;;;22.33;18.98;;;15.20;95.50;;;;;;5074717;28;20225;-88
2023/07/23 07:33:37;;;;;;;22.13;19.75;;;15.20;95.40;;;;;;5075946;28;20566;-88
2023/07/23 07:36:03;;;;;;;20.05;18.02;;;15.20;95.50;;;;;;5074978;28;20171;-88
2023/07/23 07:38:29;;;;;;;22.02;19.55;;;15.20;95.50;;;;;;5074912;28;20171;-88
2023/07/23 07:40:57;;;;;;;22.98;20.33;;;15.20;95.50;;;;;;5075052;28;20199;-89
2023/07/23 07:43:23;;;;;;;21.38;19.08;;;15.30;95.50;;;;;;5075021;28;20726;-88
2023/07/23 07:45:50;;;;;;;21.85;19.48;;;15.30;95.40;;;;;;5075062;28;20214;-88
2023/07/23 07:48:16;;;;;;;20.83;18.85;;;15.30;95.40;;;;;;5074722;28;20210;-88
2023/07/23 07:50:41;;;;;;;20.27;18.25;;;15.30;95.30;;;;;;5075088;28;20171;-88
2023/07/23 07:53:07;;;;;;;22.35;19.80;;;15.20;95.20;;;;;;5075805;28;20246;-87
2023/07/23 07:55:40;;;;;;;22.55;19.92;;;15.30;95.20;;;;;;5076120;28;20643;-88
2023/07/23 07:58:06;;;;;;;21.48;19.38;;;15.30;95.10;;;;;;5075757;28;20579;-88
2023/07/23 08:00:32;;;;;;;20.90;18.75;;;15.30;95.10;;;;;;5076023;28;20213;-89
2023/07/23 08:02:57;;;;;;;26.15;19.13;;;15.30;95.10;;;;;;5075567;28;20167;-88
2023/07/23 08:05:23;;;;;;;22.98;20.52;;;15.40;95.20;;;;;;5075991;28;20232;-88
2023/07/23 08:07:50;;;;;;;23.83;20.10;;;15.40;95.10;;;;;;5075474;28;20175;-88
2023/07/23 08:10:16;;;;;;;26.63;20.55;;;15.40;95.10;;;;;;5075754;28;20202;-88
2023/07/23 08:12:43;;;;;;;22.48;20.48;;;15.40;95.10;;;;;;5076830;28;20254;-88
2023/07/23 08:15:09;;;;;;;22.40;20.23;;;15.50;95.10;;;;;;5075427;28;20199;-88
2023/07/23 08:17:35;;;;;;;23.38;20.88;;;15.50;95.10;;;;;;5075057;28;20590;-88
2023/07/23 08:20:03;;;;;;;21.70;19.67;;;15.50;95.10;;;;;;5074283;28;20175;-88
2023/07/23 08:22:29;;;;;;;24.63;20.85;;;15.50;95.10;;;;;;5074748;28;20666;-88
2023/07/23 08:24:55;;;;;;;24.05;20.15;;;15.50;95.10;;;;;;5072829;28;20217;-88
2023/07/23 08:27:21;;;;;;;22.13;19.83;;;15.60;95.10;;;;;;5076792;28;20241;-89
2023/07/23 08:29:47;;;;;;;19.92;17.98;;;15.60;95.10;;;;;;5074686;28;20575;-88
2023/07/23 08:32:19;;;;;;;23.92;21.42;;;15.60;95.10;;;;;;5075413;28;20168;-88
2023/07/23 08:34:45;;;;;;;23.95;21.42;;;15.60;95.20;;;;;;5075528;28;20734;-88
2023/07/23 08:37:11;;;;;;;22.65;20.55;;;15.70;95.20;;;;;;5074980;28;20206;-88
2023/07/23 08:39:37;;;;;;;23.02;20.88;;;15.60;95.10;;;;;;5075443;28;20262;-88
2023/07/23 08:42:06;;;;;;;21.88;19.95;;;15.70;95.20;;;;;;5074941;28;20648;-89
2023/07/23 08:44:53;;;;;;;23.10;21.15;;;15.70;95.00;;;;;;5076774;28;20202;-88
2023/07/23 08:47:21;;;;;;;24.13;21.75;;;15.80;95.10;;;;;;5076322;28;20226;-89
2023/07/23 08:49:47;;;;;;;23.95;21.63;;;15.80;95.10;;;;;;5074562;28;20340;-88
2023/07/23 08:52:14;;;;;;;24.77;22.15;;;15.80;95.10;;;;;;5075879;28;20183;-88
2023/07/23 08:54:41;;;;;;;32.70;29.83;;;15.80;95.10;;;;;;5075049;28;20198;-88
2023/07/23 08:57:07;;;;;;;34.67;31.85;;;15.80;95.00;;;;;;5075820;28;20172;-88
2023/07/23 08:59:33;;;;;;;32.95;30.08;;;15.90;95.10;;;;;;5074697;28;20225;-88
2023/07/23 09:02:01;;;;;;;32.65;29.98;;;15.80;95.00;;;;;;5074703;28;20175;-88
2023/07/23 09:04:26;;;;;;;32.92;30.20;;;15.90;95.00;;;;;;5075588;28;20195;-88
2023/07/23 09:06:54;;;;;;;33.97;31.02;;;16.00;95.00;;;;;;5076990;28;20651;-88
2023/07/23 09:09:19;;;;;;;33.15;30.33;;;16.00;95.00;;;;;;5076181;28;20322;-89
2023/07/23 09:11:45;;;;;;;33.15;30.25;;;16.10;95.00;;;;;;5074842;28;20199;-89
2023/07/23 09:14:13;;;;;;;33.15;30.45;;;16.20;95.10;;;;;;5074936;28;20310;-89
2023/07/23 09:16:44;;;;;;;34.55;31.55;;;16.20;95.00;;;;;;5074575;28;20198;-88
2023/07/23 09:19:11;;;;;;;24.63;22.08;;;16.20;95.00;;;;;;5074211;28;20175;-88
2023/07/23 09:21:38;;;;;;;28.58;25.80;;;16.20;94.80;;;;;;5072600;28;20195;-90
2023/07/23 09:24:06;;;;;;;30.65;27.40;;;16.20;94.70;;;;;;5072644;28;20214;-89
2023/07/23 09:26:32;;;;;;;28.70;26.10;;;16.20;94.80;;;;;;5075132;28;20253;-89
2023/07/23 09:28:59;;;;;;;30.63;28.20;;;16.20;94.70;;;;;;5073960;28;20268;-89
2023/07/23 09:31:31;;;;;;;28.52;25.92;;;16.20;94.60;;;;;;5074868;28;20167;-89
2023/07/23 09:33:59;;;;;;;28.08;25.77;;;16.30;94.60;;;;;;5078164;28;20199;-89
2023/07/23 09:36:25;;;;;;;30.42;27.52;;;16.30;94.60;;;;;;5078570;28;20259;-89
2023/07/23 09:38:56;;;;;;;28.85;26.20;;;16.30;94.60;;;;;;5075938;28;20186;-89
2023/07/23 09:41:22;;;;;;;28.33;25.83;;;16.30;94.50;;;;;;5077547;28;20175;-88
2023/07/23 09:43:48;;;;;;;29.17;26.25;;;16.40;94.60;;;;;;5076933;28;20757;-89
2023/07/23 09:46:13;;;;;;;29.55;26.25;;;16.40;94.50;;;;;;5076568;28;20179;-89
2023/07/23 09:48:48;;;;;;;28.70;26.35;;;16.40;94.60;;;;;;5077008;28;20207;-89
2023/07/23 09:51:14;;;;;;;29.10;26.73;;;16.50;94.50;;;;;;5077316;28;20195;-88
2023/07/23 09:53:42;;;;;;;31.15;27.88;;;16.40;94.50;;;;;;5078845;28;20261;-89
2023/07/23 09:56:09;;;;;;;30.48;27.67;;;16.50;94.50;;;;;;5077518;28;20171;-89
2023/07/23 09:58:37;;;;;;;29.48;26.88;;;16.50;94.40;;;;;;5077125;28;20232;-89
2023/07/23 10:01:03;;;;;;;27.80;25.63;;;16.60;94.50;;;;;;5077521;28;20646;-89
2023/07/23 10:03:30;;;;;;;28.73;26.38;;;16.60;94.50;;;;;;5077668;28;20280;-88
2023/07/23 10:05:56;;;;;;;28.63;25.65;;;16.60;94.40;;;;;;5077643;28;20710;-88
2023/07/23 10:08:23;;;;;;;40.83;36.72;;;16.60;94.40;;;;;;5079909;28;20508;-89
2023/07/23 10:10:48;;;;;;;39.55;36.15;;;16.70;94.30;;;;;;5079113;28;20202;-89
2023/07/23 10:13:14;;;;;;;36.22;33.08;;;16.70;94.30;;;;;;5077703;28;20171;-89
2023/07/23 10:15:39;;;;;;;38.80;35.33;;;16.70;94.30;;;;;;5077934;28;20194;-89
2023/07/23 10:18:06;;;;;;;40.80;37.60;;;16.80;94.30;;;;;;5077604;28;20175;-89
2023/07/23 10:20:33;;;;;;;40.70;37.35;;;16.80;94.20;;;;;;5077538;28;20211;-89
2023/07/23 10:22:58;;;;;;;39.40;35.88;;;16.90;94.30;;;;;;5077429;28;20167;-89
2023/07/23 10:25:32;;;;;;;38.33;35.03;;;16.90;94.30;;;;;;5077747;28;20693;-89
2023/07/23 10:28:02;;;;;;;32.55;29.75;;;16.90;94.10;;;;;;5078626;28;20175;-89
2023/07/23 10:30:29;;;;;;;30.42;27.75;;;16.90;94.00;;;;;;5077347;28;20172;-89
2023/07/23 10:33:10;;;;;;;31.58;28.73;;;16.90;94.00;;;;;;5077774;28;20266;-89
2023/07/23 10:35:58;;;;;;;30.80;27.77;;;16.90;93.90;;;;;;5077641;28;20642;-88
2023/07/23 10:38:35;;;;;;;29.38;26.95;;;16.80;93.70;;;;;;5078834;28;20164;-88
2023/07/23 10:41:01;;;;;;;33.03;28.65;;;16.90;93.70;;;;;;5078575;28;20175;-88
2023/07/23 10:43:44;;;;;;;31.30;28.05;;;16.80;93.60;;;;;;5079010;28;20201;-89
2023/07/23 10:46:17;;;;;;;30.55;27.77;;;16.90;93.80;;;;;;5079625;28;20669;-89
2023/07/23 10:48:49;;;;;;;30.67;27.77;;;17.00;93.70;;;;;;5079818;28;20202;-88
2023/07/23 10:51:17;;;;;;;26.83;24.42;;;16.90;93.80;;;;;;5081114;28;20242;-89
2023/07/23 10:54:01;;;;;;;28.30;25.83;;;17.00;94.00;;;;;;5079294;28;20195;-88
2023/07/23 10:56:46;;;;;;;29.90;26.65;;;17.00;94.10;;;;;;5078761;28;20542;-88
2023/07/23 10:59:21;;;;;;;29.85;26.85;;;16.90;93.90;;;;;;5078542;28;20179;-88
2023/07/23 11:01:50;;;;;;;29.85;26.95;;;16.90;93.90;;;;;;5080485;28;20163;-89
2023/07/23 11:04:22;;;;;;;27.58;25.30;;;16.90;93.90;;;;;;5078307;28;20196;-88
2023/07/23 11:07:02;;;;;;;29.60;26.35;;;17.00;94.00;;;;;;5079795;28;20159;-88
2023/07/23 11:09:30;;;;;;;27.50;24.90;;;17.00;94.00;;;;;;5075063;28;20202;-88
2023/07/23 11:11:56;;;;;;;30.88;27.90;;;17.00;94.00;;;;;;5073995;28;20175;-88
2023/07/23 11:14:27;;;;;;;28.15;25.27;;;17.00;94.10;;;;;;5076521;28;20190;-88
2023/07/23 11:16:57;;;;;;;29.20;26.25;;;16.90;94.10;;;;;;5078441;28;20168;-88
2023/07/23 11:19:24;;;;;;;29.00;26.10;;;16.80;94.20;;;;;;5077180;28;20611;-88
2023/07/23 11:21:58;;;;;;;29.10;26.40;;;16.80;94.30;;;;;;5077764;28;20191;-88
2023/07/23 11:24:25;;;;;;;28.63;25.90;;;16.80;94.30;;;;;;5077101;28;20221;-88
2023/07/23 11:26:51;;;;;;;28.77;25.95;;;16.70;94.10;;;;;;5077783;28;20601;-88
2023/07/23 11:29:17;;;;;;;31.42;27.92;;;16.70;94.50;;;;;;5077024;28;20630;-88
2023/07/23 11:31:44;;;;;;;29.63;26.50;;;16.70;94.60;;;;;;5077697;28;20175;-88
2023/07/23 11:34:11;;;;;;;29.08;26.10;;;16.50;94.60;;;;;;5076985;28;20278;-88
2023/07/23 11:36:37;;;;;;;26.50;23.73;;;16.50;94.60;;;;;;5077814;28;20167;-87
2023/07/23 11:39:04;;;;;;;26.10;23.63;;;16.50;94.50;;;;;;5075306;28;20179;-88
2023/07/23 11:41:36;;;;;;;24.55;22.27;;;16.50;94.60;;;;;;5076013;28;20465;-88
2023/07/23 11:44:06;;;;;;;22.83;20.85;;;16.50;94.50;;;;;;5075824;28;20662;-87
2023/07/23 11:46:33;;;;;;;24.17;22.08;;;16.50;94.40;;;;;;5075277;28;20210;-88
2023/07/23 11:49:00;;;;;;;24.55;22.25;;;16.70;94.80;;;;;;5074973;28;20202;-88
2023/07/23 11:51:28;;;;;;;24.30;21.85;;;16.60;94.90;;;;;;5075608;28;20550;-88
2023/07/23 11:54:00;;;;;;;24.13;22.05;;;16.70;95.10;;;;;;5074291;28;20201;-88
2023/07/23 11:56:25;;;;;;;23.33;21.38;;;16.70;95.00;;;;;;5074796;28;20171;-88
2023/07/23 11:58:51;;;;;;;27.33;24.45;;;16.50;94.70;;;;;;5076348;28;20176;-88
2023/07/23 12:01:17;;;;;;;26.20;23.83;;;16.60;95.00;;;;;;5075151;28;20198;-88
2023/07/23 12:03:44;;;;;;;27.85;25.33;;;16.70;95.20;;;;;;5075922;28;20302;-89
2023/07/23 12:06:16;;;;;;;27.85;24.95;;;16.60;95.10;;;;;;5075810;28;20175;-88
2023/07/23 12:08:46;;;;;;;25.35;22.85;;;16.60;95.20;;;;;;5076718;28;20638;-88
2023/07/23 12:11:13;;;;;;;26.10;23.90;;;16.50;95.00;;;;;;5074272;28;20206;-88
2023/07/23 12:13:43;;;;;;;26.98;24.27;;;16.50;95.00;;;;;;5074071;28;20325;-88
2023/07/23 12:16:33;;;;;;;27.00;24.40;;;16.60;95.00;;;;;;5073912;28;20167;-88
2023/07/23 12:19:09;;;;;;;26.60;23.92;;;16.50;95.10;;;;;;5075499;28;20197;-88
2023/07/23 12:21:36;;;;;;;26.48;23.88;;;16.50;95.10;;;;;;5075675;28;20209;-88
2023/07/23 12:24:26;;;;;;;27.40;24.83;;;16.50;95.30;;;;;;5074195;28;20210;-88
2023/07/23 12:26:54;;;;;;;28.65;25.85;;;16.50;95.40;;;;;;5066719;28;20218;-88